Time;durP1;ratioP1;P1;durP2;ratioP2;P2;SDS_P1;SDS_P2;PMS_P1;PMS_P2;Temp;Humidity;BMP_temperature;BMP_pressure;BME280_temperature;BME280_humidity;BME280_pressure;Samples;Min_cycle;Max_cycle;Signal;HPM_P1;HPM_P2
2022/10/07 04:02:12;;;;;;;8.20;6.10;;;14.10;99.90;;;;;;5163292;23;20493;-64
2022/10/07 04:04:38;;;;;;;6.30;4.90;;;14.10;99.90;;;;;;4977193;28;20583;-64
2022/10/07 04:07:05;;;;;;;13.57;6.40;;;14.10;99.90;;;;;;4977248;28;20466;-64
2022/10/07 04:09:32;;;;;;;7.67;5.77;;;14.10;99.90;;;;;;4977227;28;20481;-64
2022/10/07 04:12:00;;;;;;;8.50;5.60;;;14.10;99.90;;;;;;4977086;28;20486;-64
2022/10/07 04:14:27;;;;;;;6.57;5.50;;;14.20;99.90;;;;;;4977328;28;20443;-65
2022/10/07 04:16:53;;;;;;;8.60;5.00;;;14.20;99.90;;;;;;4977145;28;20814;-65
2022/10/07 04:19:22;;;;;;;8.93;5.30;;;14.20;99.90;;;;;;4977193;28;20855;-65
2022/10/07 04:21:48;;;;;;;6.57;5.13;;;14.20;99.90;;;;;;4976627;28;20506;-64
2022/10/07 04:24:15;;;;;;;5.50;4.57;;;14.20;99.90;;;;;;4977599;28;20458;-65
2022/10/07 04:26:42;;;;;;;7.70;5.37;;;14.20;99.90;;;;;;4976825;28;20942;-64
2022/10/07 04:29:09;;;;;;;7.50;5.20;;;14.20;99.90;;;;;;4976978;28;20458;-65
2022/10/07 04:31:36;;;;;;;5.67;5.17;;;14.20;99.90;;;;;;4976950;28;20537;-65
2022/10/07 04:34:02;;;;;;;9.90;4.90;;;14.20;99.90;;;;;;4976776;28;20526;-65
2022/10/07 04:36:31;;;;;;;8.27;5.50;;;14.30;99.90;;;;;;4976922;28;20462;-65
2022/10/07 04:38:58;;;;;;;8.53;4.97;;;14.30;99.90;;;;;;4976377;28;21021;-64
2022/10/07 04:41:25;;;;;;;6.87;5.03;;;14.30;99.90;;;;;;4976742;28;20478;-65
2022/10/07 04:43:51;;;;;;;8.37;5.70;;;14.30;99.90;;;;;;4976177;28;20866;-64
2022/10/07 04:46:18;;;;;;;10.93;7.20;;;14.30;99.90;;;;;;4976057;28;20459;-65
2022/10/07 04:48:45;;;;;;;8.07;5.93;;;14.30;99.90;;;;;;4976575;28;20455;-64
2022/10/07 04:51:13;;;;;;;7.67;5.57;;;14.30;99.90;;;;;;4976307;28;20483;-64
2022/10/07 04:53:41;;;;;;;6.67;4.87;;;14.30;99.90;;;;;;4976933;28;20522;-64
2022/10/07 04:56:10;;;;;;;5.57;5.07;;;14.20;99.90;;;;;;4976359;28;20454;-64
2022/10/07 04:58:36;;;;;;;7.20;5.00;;;14.30;99.90;;;;;;4976273;28;20461;-64
2022/10/07 05:01:07;;;;;;;8.00;4.83;;;14.30;99.90;;;;;;4981267;28;20518;-64
2022/10/07 05:03:37;;;;;;;9.97;5.80;;;14.30;99.90;;;;;;4983257;28;20435;-64
2022/10/07 05:06:04;;;;;;;8.83;5.47;;;14.20;99.90;;;;;;4978081;28;20485;-64
2022/10/07 05:08:31;;;;;;;7.87;5.27;;;14.20;99.90;;;;;;4977615;28;20463;-65
2022/10/07 05:11:01;;;;;;;5.47;4.83;;;14.30;99.90;;;;;;4980169;28;20541;-64
2022/10/07 05:13:28;;;;;;;5.40;4.90;;;14.30;99.90;;;;;;4978241;28;20533;-64
2022/10/07 05:15:56;;;;;;;9.70;6.30;;;14.30;99.90;;;;;;4977632;28;20458;-65
2022/10/07 05:18:25;;;;;;;8.27;5.63;;;14.30;99.90;;;;;;4976635;28;20941;-65
2022/10/07 05:20:52;;;;;;;8.13;5.87;;;14.30;99.90;;;;;;4975907;28;20475;-66
2022/10/07 05:23:20;;;;;;;8.47;6.00;;;14.20;99.90;;;;;;4975779;28;20530;-65
2022/10/07 05:25:47;;;;;;;7.83;5.23;;;14.10;99.90;;;;;;4975738;28;20517;-64
2022/10/07 05:28:15;;;;;;;6.60;5.37;;;14.20;99.90;;;;;;4975847;28;20462;-65
2022/10/07 05:30:42;;;;;;;12.43;6.00;;;14.20;99.90;;;;;;4975596;28;20482;-65
2022/10/07 05:33:09;;;;;;;8.30;5.90;;;14.20;99.90;;;;;;4974927;28;20882;-65
2022/10/07 05:35:36;;;;;;;7.67;5.70;;;14.20;99.90;;;;;;4975645;28;20486;-64
2022/10/07 05:38:03;;;;;;;6.43;5.80;;;14.20;99.90;;;;;;4975584;28;20454;-65
2022/10/07 05:40:29;;;;;;;22.90;6.43;;;14.20;99.90;;;;;;4975306;28;20978;-65
2022/10/07 05:42:56;;;;;;;8.27;5.83;;;14.20;99.90;;;;;;4975572;28;20451;-64
2022/10/07 05:45:24;;;;;;;12.00;6.27;;;14.10;99.90;;;;;;4975659;28;20458;-64
2022/10/07 05:47:51;;;;;;;8.57;5.90;;;14.10;99.90;;;;;;4975237;28;21028;-65
2022/10/07 05:50:17;;;;;;;9.97;6.50;;;14.20;99.90;;;;;;4975433;28;20482;-64
2022/10/07 05:52:44;;;;;;;11.30;6.23;;;14.10;99.90;;;;;;4975417;28;20478;-64
2022/10/07 05:55:11;;;;;;;9.60;6.87;;;14.20;99.90;;;;;;4975270;28;20455;-64
2022/10/07 05:57:38;;;;;;;7.83;6.73;;;14.20;99.90;;;;;;4975247;28;20509;-64
2022/10/07 06:00:06;;;;;;;9.00;6.33;;;14.30;99.90;;;;;;4975036;28;20942;-64
2022/10/07 06:02:36;;;;;;;11.30;6.87;;;14.30;99.90;;;;;;4974694;28;20482;-65
2022/10/07 06:05:02;;;;;;;10.80;7.07;;;14.40;99.90;;;;;;4974803;28;21008;-64
2022/10/07 06:07:29;;;;;;;7.57;6.30;;;14.40;99.90;;;;;;4975329;28;20486;-63
2022/10/07 06:15:24;;;;;;;14.67;7.20;;;14.50;99.90;;;;;;4982356;28;20418;-64
2022/10/07 06:17:52;;;;;;;12.80;6.50;;;14.60;99.90;;;;;;4982426;28;20469;-65
2022/10/07 06:20:19;;;;;;;10.40;6.90;;;14.70;99.90;;;;;;4982219;28;20450;-64
2022/10/07 06:22:45;;;;;;;10.87;6.60;;;14.70;99.90;;;;;;4981814;28;20474;-64
2022/10/07 06:25:12;;;;;;;10.37;7.20;;;14.80;99.90;;;;;;4975834;28;20869;-65
2022/10/07 06:27:38;;;;;;;8.30;6.37;;;14.90;99.90;;;;;;4975552;28;20934;-65
2022/10/07 06:30:07;;;;;;;7.90;6.10;;;15.00;99.90;;;;;;4974883;28;20462;-64
2022/10/07 06:32:33;;;;;;;10.03;6.63;;;15.10;99.90;;;;;;4974781;28;20541;-65
2022/10/07 06:35:01;;;;;;;6.47;5.83;;;15.20;99.90;;;;;;4974971;28;20525;-64
2022/10/07 06:37:31;;;;;;;11.60;6.80;;;15.20;99.90;;;;;;4975043;28;20467;-64
2022/10/07 06:39:58;;;;;;;8.60;6.20;;;15.30;99.90;;;;;;4974946;28;20465;-64
2022/10/07 06:42:25;;;;;;;9.37;6.43;;;15.40;99.90;;;;;;4974794;28;20474;-64
2022/10/07 06:44:53;;;;;;;6.63;5.43;;;15.40;99.90;;;;;;4978366;28;20501;-64
2022/10/07 06:47:20;;;;;;;10.63;6.10;;;15.50;99.90;;;;;;4978755;28;20549;-64
2022/10/07 06:49:46;;;;;;;10.20;6.97;;;15.60;99.90;;;;;;4978705;28;20460;-64
2022/10/07 06:52:14;;;;;;;10.80;6.93;;;15.70;99.90;;;;;;4978366;28;20881;-64
2022/10/07 06:54:41;;;;;;;12.13;6.53;;;15.80;99.90;;;;;;4978534;28;20569;-64
2022/10/07 06:57:08;;;;;;;9.17;5.03;;;15.90;99.90;;;;;;4978576;28;20463;-65
2022/10/07 06:59:35;;;;;;;9.20;5.93;;;16.00;99.90;;;;;;4978459;28;20458;-65
2022/10/07 07:02:01;;;;;;;15.63;6.00;;;16.20;99.90;;;;;;4978545;28;20545;-64
2022/10/07 07:04:28;;;;;;;8.70;5.77;;;16.40;99.90;;;;;;4978429;28;20455;-65
2022/10/07 07:06:55;;;;;;;8.87;6.70;;;16.50;99.90;;;;;;4979763;28;20459;-64
2022/10/07 07:09:23;;;;;;;10.07;5.77;;;16.70;99.90;;;;;;4982029;28;21032;-65
2022/10/07 07:11:49;;;;;;;8.50;5.40;;;16.80;99.90;;;;;;4979696;28;20466;-64
2022/10/07 07:14:17;;;;;;;7.10;6.00;;;16.90;99.90;;;;;;4978150;28;20537;-64
2022/10/07 07:16:44;;;;;;;6.73;6.00;;;17.00;99.90;;;;;;4978112;28;20458;-65
2022/10/07 07:19:13;;;;;;;7.27;5.97;;;17.10;99.90;;;;;;4978149;28;20454;-64
2022/10/07 07:21:40;;;;;;;11.70;5.70;;;17.20;99.90;;;;;;4978108;28;20509;-64
2022/10/07 07:24:07;;;;;;;7.33;5.50;;;17.40;99.90;;;;;;4977829;28;21001;-64
2022/10/07 07:26:36;;;;;;;12.93;5.40;;;17.70;99.90;;;;;;4978193;28;20497;-64
2022/10/07 07:29:05;;;;;;;10.07;5.83;;;18.30;99.90;;;;;;4977976;28;20855;-64
2022/10/07 07:31:34;;;;;;;16.13;8.60;;;18.90;99.90;;;;;;4977937;28;20474;-64
2022/10/07 07:34:02;;;;;;;9.93;5.60;;;19.70;99.90;;;;;;4977832;28;20474;-64
2022/10/07 07:36:32;;;;;;;11.00;5.37;;;20.60;99.90;;;;;;4977861;28;20461;-64
2022/10/07 07:39:00;;;;;;;8.90;5.83;;;21.40;99.90;;;;;;4978303;28;20811;-65
2022/10/07 07:41:30;;;;;;;11.80;5.10;;;22.10;99.90;;;;;;4977856;28;20482;-64
2022/10/07 07:44:00;;;;;;;14.13;7.77;;;22.60;99.90;;;;;;4977730;28;20454;-65
2022/10/07 07:46:32;;;;;;;9.17;5.60;;;23.30;99.90;;;;;;4977829;28;20443;-65
2022/10/07 07:48:58;;;;;;;7.97;5.17;;;24.00;99.90;;;;;;4977736;28;20464;-65
2022/10/07 07:51:25;;;;;;;7.80;4.97;;;24.60;99.90;;;;;;4977465;28;20486;-65
2022/10/07 07:53:52;;;;;;;10.43;5.33;;;25.00;99.90;;;;;;4977457;28;20524;-65
2022/10/07 07:56:19;;;;;;;9.17;5.00;;;25.60;99.90;;;;;;4976769;28;20546;-65
2022/10/07 07:58:46;;;;;;;8.50;4.83;;;26.10;99.40;;;;;;4977634;28;20525;-65
2022/10/07 08:01:16;;;;;;;5.93;5.43;;;26.70;97.70;;;;;;4977198;28;20483;-65
2022/10/07 08:03:45;;;;;;;6.50;5.67;;;27.00;95.60;;;;;;4977225;28;20454;-66
2022/10/07 08:06:13;;;;;;;11.00;5.67;;;27.40;94.30;;;;;;4977284;28;20505;-66
2022/10/07 08:08:41;;;;;;;15.87;6.03;;;27.60;93.60;;;;;;4977361;28;20954;-65
2022/10/07 08:11:09;;;;;;;9.67;5.90;;;27.50;92.10;;;;;;4977328;28;20486;-65
2022/10/07 08:13:38;;;;;;;7.67;5.80;;;27.60;93.20;;;;;;4977167;28;20478;-65
2022/10/07 08:16:06;;;;;;;7.03;5.17;;;28.00;90.90;;;;;;4977206;28;20461;-65
2022/10/07 08:18:34;;;;;;;25.17;16.37;;;28.00;90.60;;;;;;4977015;28;21016;-65
2022/10/07 08:21:03;;;;;;;10.00;7.13;;;28.30;88.50;;;;;;4976947;28;20490;-66
2022/10/07 08:23:30;;;;;;;9.93;6.90;;;28.50;87.50;;;;;;4976988;28;20450;-66
2022/10/07 08:25:58;;;;;;;9.03;6.10;;;28.50;87.40;;;;;;4976803;28;20510;-65
2022/10/07 08:28:26;;;;;;;13.93;8.17;;;28.50;87.40;;;;;;4976723;28;20458;-65
2022/10/07 08:30:53;;;;;;;9.90;5.60;;;28.50;86.60;;;;;;4976733;28;20570;-65
2022/10/07 08:33:22;;;;;;;11.23;6.20;;;28.70;85.80;;;;;;4976760;28;20550;-66
2022/10/07 08:35:58;;;;;;;9.13;5.20;;;28.80;86.30;;;;;;4977226;28;20835;-67
2022/10/07 08:38:25;;;;;;;5.33;4.80;;;29.00;85.60;;;;;;4976619;28;20442;-65
2022/10/07 08:40:53;;;;;;;9.80;6.30;;;29.40;84.30;;;;;;4976419;28;20871;-66
2022/10/07 08:43:23;;;;;;;9.13;5.40;;;29.80;81.10;;;;;;4976953;28;20462;-66
2022/10/07 08:45:54;;;;;;;6.50;4.80;;;29.80;79.80;;;;;;4976448;28;20445;-66
2022/10/07 08:48:28;;;;;;;8.57;5.47;;;30.00;82.20;;;;;;4977371;28;20489;-66
2022/10/07 08:51:04;;;;;;;8.33;4.73;;;30.50;78.80;;;;;;4976711;28;20985;-66
2022/10/07 08:53:33;;;;;;;7.40;4.60;;;30.70;77.10;;;;;;4977134;28;20463;-66
2022/10/07 08:56:10;;;;;;;5.73;4.50;;;30.10;75.70;;;;;;4976330;28;20462;-66
2022/10/07 08:58:49;;;;;;;7.20;4.70;;;30.10;76.30;;;;;;4977006;28;20442;-65
2022/10/07 09:01:29;;;;;;;9.70;4.93;;;30.20;75.60;;;;;;4975932;28;20493;-66
2022/10/07 09:04:06;;;;;;;7.30;5.30;;;30.30;74.40;;;;;;4976103;28;20442;-65
2022/10/07 09:06:38;;;;;;;5.77;5.27;;;30.20;73.80;;;;;;4975403;28;20466;-65
2022/10/07 09:09:13;;;;;;;7.67;4.23;;;30.60;75.30;;;;;;4976233;28;20439;-65
2022/10/07 09:11:43;;;;;;;7.10;4.20;;;30.80;71.40;;;;;;4975980;28;20478;-65
2022/10/07 09:14:18;;;;;;;6.33;4.37;;;30.80;71.30;;;;;;4975814;28;20462;-65
2022/10/07 09:16:47;;;;;;;8.03;4.97;;;31.10;73.70;;;;;;4975867;28;20447;-65
2022/10/07 09:19:21;;;;;;;8.93;4.70;;;31.30;70.70;;;;;;4975944;28;20461;-65
2022/10/07 09:21:50;;;;;;;5.13;3.40;;;31.40;68.50;;;;;;4975958;28;20561;-66
2022/10/07 09:24:21;;;;;;;4.30;3.97;;;31.40;67.30;;;;;;4975820;28;20447;-64
2022/10/07 09:26:48;;;;;;;8.07;4.23;;;31.40;66.70;;;;;;4975588;28;20903;-65
2022/10/07 09:29:19;;;;;;;5.63;3.70;;;31.70;67.80;;;;;;4975577;28;20459;-65
2022/10/07 09:31:45;;;;;;;4.87;4.00;;;31.00;67.80;;;;;;4975938;28;20509;-66
2022/10/07 09:34:22;;;;;;;6.47;3.70;;;31.00;68.80;;;;;;4975846;28;20530;-65
2022/10/07 09:37:13;;;;;;;7.23;4.23;;;30.90;68.10;;;;;;4975703;28;20438;-66
2022/10/07 09:39:41;;;;;;;4.67;3.80;;;31.20;68.60;;;;;;4975648;28;20868;-66
2022/10/07 09:42:10;;;;;;;6.60;4.40;;;31.30;66.90;;;;;;4975495;28;20479;-66
2022/10/07 09:44:38;;;;;;;8.00;3.80;;;31.30;68.90;;;;;;4975439;28;20455;-66
2022/10/07 09:47:15;;;;;;;4.37;3.97;;;31.30;66.20;;;;;;4975765;28;20454;-66
2022/10/07 09:49:44;;;;;;;9.33;4.00;;;30.60;66.90;;;;;;4975722;28;20479;-66
2022/10/07 09:52:20;;;;;;;6.47;4.43;;;30.90;66.20;;;;;;4975350;28;20894;-66
2022/10/07 09:54:50;;;;;;;6.60;4.33;;;31.30;66.40;;;;;;4975249;28;20499;-66
2022/10/07 09:57:26;;;;;;;8.70;4.23;;;31.70;68.10;;;;;;4975266;28;20849;-66
2022/10/07 10:00:16;;;;;;;4.33;3.93;;;31.40;63.10;;;;;;4975267;28;20466;-65
2022/10/07 10:02:47;;;;;;;3.53;3.17;;;31.20;65.10;;;;;;4975338;28;20439;-65
2022/10/07 10:05:25;;;;;;;12.57;3.90;;;31.40;65.10;;;;;;4975422;28;20435;-66
2022/10/07 10:08:00;;;;;;;6.50;3.53;;;31.60;65.10;;;;;;4975847;28;20435;-66
2022/10/07 10:10:30;;;;;;;5.20;4.00;;;31.90;63.30;;;;;;4976517;28;20434;-65
2022/10/07 10:12:59;;;;;;;5.40;3.57;;;31.80;62.70;;;;;;4974761;28;20455;-65
2022/10/07 10:15:36;;;;;;;5.73;3.57;;;31.80;62.60;;;;;;4975248;28;20478;-65
2022/10/07 10:18:23;;;;;;;5.47;4.37;;;31.80;65.30;;;;;;4974701;28;20498;-66
2022/10/07 10:20:50;;;;;;;3.70;3.50;;;31.70;62.10;;;;;;4974924;28;20533;-65
2022/10/07 10:23:29;;;;;;;5.00;4.50;;;31.70;63.80;;;;;;4974978;28;20458;-66
2022/10/07 10:26:26;;;;;;;7.50;4.30;;;31.20;62.80;;;;;;4975008;28;20493;-66
2022/10/07 10:29:09;;;;;;;9.57;4.60;;;30.50;65.10;;;;;;4976886;28;20454;-67
2022/10/07 10:31:52;;;;;;;4.47;4.17;;;30.10;65.80;;;;;;4976211;28;20478;-66
2022/10/07 10:34:34;;;;;;;5.60;4.40;;;30.00;67.80;;;;;;4974798;28;20470;-66
2022/10/07 10:37:08;;;;;;;7.63;4.73;;;30.00;67.70;;;;;;4975133;28;20470;-65
2022/10/07 10:39:51;;;;;;;5.40;4.90;;;30.40;68.40;;;;;;4975454;28;20442;-67
2022/10/07 10:42:25;;;;;;;6.97;4.50;;;30.30;65.90;;;;;;4975171;28;21032;-66
2022/10/07 10:45:06;;;;;;;7.90;3.50;;;30.00;67.80;;;;;;4975169;28;20439;-65
2022/10/07 10:47:45;;;;;;;4.50;4.20;;;29.80;68.40;;;;;;4974786;28;20537;-64
2022/10/07 10:50:18;;;;;;;5.53;4.23;;;29.00;69.40;;;;;;4974393;28;20914;-64
2022/10/07 10:52:57;;;;;;;5.13;4.63;;;28.80;71.60;;;;;;4974731;28;20443;-64
2022/10/07 10:55:39;;;;;;;4.60;4.20;;;28.70;71.10;;;;;;4974427;28;21036;-65
2022/10/07 10:58:22;;;;;;;4.63;4.20;;;28.50;71.90;;;;;;4974404;28;20910;-64
2022/10/07 11:00:58;;;;;;;5.33;4.80;;;28.10;71.70;;;;;;4974491;28;20482;-65
2022/10/07 11:03:41;;;;;;;8.30;4.30;;;27.80;73.70;;;;;;4974602;28;20438;-65
2022/10/07 11:06:12;;;;;;;6.03;4.50;;;27.50;74.10;;;;;;4974555;28;20506;-65
2022/10/07 11:08:40;;;;;;;6.20;4.90;;;27.00;75.90;;;;;;4974638;28;20530;-65
2022/10/07 11:11:11;;;;;;;12.03;5.57;;;26.60;79.00;;;;;;4974517;28;20844;-65
2022/10/07 11:13:45;;;;;;;5.70;4.63;;;26.10;78.40;;;;;;4974577;28;20449;-66
2022/10/07 11:16:16;;;;;;;10.70;5.00;;;25.80;80.80;;;;;;4974168;28;20962;-66
2022/10/07 11:18:47;;;;;;;5.83;4.93;;;25.60;81.60;;;;;;4974450;28;20443;-65
2022/10/07 11:21:18;;;;;;;6.13;5.63;;;25.50;83.80;;;;;;4974402;28;20521;-66
2022/10/07 11:23:52;;;;;;;5.30;4.80;;;25.40;85.30;;;;;;4974500;28;20439;-66
2022/10/07 11:26:28;;;;;;;6.60;6.00;;;25.40;85.30;;;;;;4974052;28;20958;-66
2022/10/07 11:28:58;;;;;;;6.03;5.53;;;25.50;86.20;;;;;;4974456;28;20449;-66
2022/10/07 11:31:31;;;;;;;7.23;5.77;;;25.50;85.60;;;;;;4976732;28;20485;-65
2022/10/07 11:34:11;;;;;;;8.93;5.40;;;25.50;87.70;;;;;;4977947;28;20506;-65
2022/10/07 11:36:47;;;;;;;6.57;6.00;;;25.40;86.20;;;;;;4979032;28;20443;-66
2022/10/07 11:39:14;;;;;;;6.90;6.27;;;25.10;87.20;;;;;;4977705;28;20913;-66
2022/10/07 11:41:48;;;;;;;6.50;5.80;;;24.90;87.40;;;;;;4977846;28;20479;-64
2022/10/07 11:44:20;;;;;;;8.43;5.67;;;24.90;89.50;;;;;;4977881;28;20442;-65
2022/10/07 11:46:48;;;;;;;6.73;6.10;;;24.90;90.50;;;;;;4977667;28;20474;-65
2022/10/07 11:49:20;;;;;;;6.20;5.70;;;25.10;91.20;;;;;;4977631;28;20462;-66
2022/10/07 11:51:54;;;;;;;7.20;5.80;;;25.20;88.70;;;;;;4977458;28;20525;-65
2022/10/07 11:54:26;;;;;;;8.70;5.63;;;25.20;88.10;;;;;;4977060;28;20973;-65
2022/10/07 11:56:56;;;;;;;12.00;6.80;;;25.10;90.40;;;;;;4977379;28;20443;-66
2022/10/07 11:59:48;;;;;;;5.90;5.30;;;25.20;90.00;;;;;;4977581;28;20533;-66
2022/10/07 12:02:43;;;;;;;6.07;5.57;;;25.10;90.00;;;;;;4967295;28;20494;-65
2022/10/07 12:05:42;;;;;;;5.60;5.10;;;25.00;90.10;;;;;;4953730;28;20458;-65
2022/10/07 12:08:29;;;;;;;16.10;6.83;;;24.80;91.00;;;;;;4970364;28;21012;-62
2022/10/07 12:11:21;;;;;;;7.53;5.40;;;24.70;90.20;;;;;;4977128;28;20529;-63
2022/10/07 12:13:50;;;;;;;6.47;5.97;;;24.60;90.90;;;;;;4976712;28;20486;-62
2022/10/07 12:16:53;;;;;;;6.20;5.67;;;24.60;92.50;;;;;;4977019;28;20486;-62
2022/10/07 12:19:21;;;;;;;6.60;5.90;;;24.60;91.50;;;;;;4956642;28;20493;-63
2022/10/07 12:22:16;;;;;;;7.00;6.30;;;24.50;91.80;;;;;;4977558;28;20474;-61
2022/10/07 12:24:45;;;;;;;13.90;7.10;;;24.20;91.60;;;;;;4977806;28;20434;-62
2022/10/07 12:27:16;;;;;;;7.47;6.40;;;24.10;92.20;;;;;;4977638;28;20549;-62
2022/10/07 12:29:57;;;;;;;7.03;6.13;;;23.90;92.50;;;;;;4977469;28;20447;-63
2022/10/07 12:32:46;;;;;;;11.10;6.57;;;24.10;93.50;;;;;;4977600;28;21030;-61
2022/10/07 12:35:46;;;;;;;8.00;7.20;;;24.10;93.30;;;;;;4976657;28;20474;-63
2022/10/07 12:38:16;;;;;;;7.10;6.40;;;24.10;94.10;;;;;;4976994;28;20958;-63
2022/10/07 12:40:46;;;;;;;7.43;6.73;;;24.10;93.60;;;;;;4977235;28;20557;-62
2022/10/07 12:43:24;;;;;;;6.93;6.23;;;24.20;93.40;;;;;;4976663;28;20490;-63
2022/10/07 12:45:53;;;;;;;6.50;5.83;;;24.20;92.90;;;;;;4976407;28;20906;-63
2022/10/07 12:48:23;;;;;;;8.80;7.90;;;24.00;93.20;;;;;;4976443;28;20459;-63
2022/10/07 12:50:53;;;;;;;7.57;6.90;;;24.10;94.30;;;;;;4976436;28;20526;-62
2022/10/07 12:53:25;;;;;;;8.17;6.50;;;24.20;93.90;;;;;;4976250;28;21039;-61
2022/10/07 12:55:54;;;;;;;7.73;7.03;;;24.20;93.30;;;;;;4976636;28;20561;-62
2022/10/07 13:01:44;;;;;;;6.90;6.40;;;24.10;93.90;;;;;;4976296;28;20485;-63
2022/10/07 13:04:37;;;;;;;8.17;6.40;;;24.00;94.40;;;;;;4976141;28;20443;-63
2022/10/07 13:07:38;;;;;;;8.23;7.07;;;24.10;94.70;;;;;;4976136;28;20477;-63
2022/10/07 13:10:46;;;;;;;7.80;6.50;;;23.90;94.00;;;;;;4976072;28;20439;-62
2022/10/07 13:13:20;;;;;;;7.73;7.10;;;23.80;94.20;;;;;;4956220;28;20462;-62
2022/10/07 13:15:52;;;;;;;7.50;6.73;;;23.70;94.70;;;;;;4975800;28;20467;-62
2022/10/07 13:18:26;;;;;;;8.13;6.73;;;23.60;95.10;;;;;;4975950;28;20450;-63
2022/10/07 13:21:01;;;;;;;9.87;8.57;;;23.50;95.80;;;;;;4975969;28;20478;-62
2022/10/07 13:23:29;;;;;;;8.27;6.90;;;23.30;96.10;;;;;;4975901;28;20525;-62
2022/10/07 13:25:59;;;;;;;8.87;7.73;;;23.20;96.30;;;;;;4975806;28;20455;-62
2022/10/07 13:28:35;;;;;;;9.47;7.03;;;23.10;95.80;;;;;;4975750;28;20462;-62
2022/10/07 13:31:13;;;;;;;8.83;6.73;;;22.90;97.00;;;;;;4975281;28;21048;-62
2022/10/07 13:33:43;;;;;;;11.03;7.00;;;22.80;97.00;;;;;;4975761;28;20493;-62
2022/10/07 13:36:19;;;;;;;7.40;6.70;;;22.80;97.80;;;;;;4975480;28;20489;-61
2022/10/07 13:38:48;;;;;;;10.10;5.73;;;22.80;97.90;;;;;;4975633;28;20497;-62
2022/10/07 13:41:34;;;;;;;9.33;6.03;;;22.90;98.30;;;;;;4975470;28;20573;-62
2022/10/07 13:44:04;;;;;;;7.73;5.83;;;22.90;97.80;;;;;;4975463;28;20443;-62
2022/10/07 13:46:34;;;;;;;7.90;7.07;;;22.80;98.10;;;;;;4975062;28;20783;-63
2022/10/07 13:49:03;;;;;;;7.53;6.80;;;22.80;97.70;;;;;;4975279;28;20455;-63
2022/10/07 13:51:33;;;;;;;7.77;6.63;;;22.60;98.40;;;;;;4975270;28;20479;-63
2022/10/07 13:54:03;;;;;;;8.70;7.80;;;22.60;98.80;;;;;;4974688;28;20439;-61
2022/10/07 13:56:34;;;;;;;11.23;8.20;;;22.60;99.10;;;;;;4975260;28;20478;-63
2022/10/07 13:59:03;;;;;;;9.83;6.93;;;22.50;99.30;;;;;;4974815;28;20973;-62
2022/10/07 14:01:31;;;;;;;8.67;7.70;;;22.30;99.60;;;;;;4975036;28;20493;-61
2022/10/07 14:04:21;;;;;;;9.03;8.17;;;22.20;99.90;;;;;;4975170;28;20455;-62
2022/10/07 14:06:52;;;;;;;8.73;7.97;;;22.40;99.90;;;;;;4974898;28;20924;-62
2022/10/07 14:09:32;;;;;;;7.60;7.00;;;22.50;99.90;;;;;;4975120;28;20478;-63
2022/10/07 14:12:02;;;;;;;7.73;7.00;;;22.50;99.90;;;;;;4974950;28;20470;-62
2022/10/07 14:14:33;;;;;;;10.13;6.63;;;22.40;99.50;;;;;;4975042;28;20830;-62
2022/10/07 14:17:00;;;;;;;7.83;7.03;;;22.40;99.90;;;;;;4975009;28;20463;-62
2022/10/07 14:19:32;;;;;;;8.20;7.50;;;22.20;99.80;;;;;;4975631;28;20455;-62
2022/10/07 14:22:01;;;;;;;7.73;6.27;;;22.20;99.90;;;;;;4979365;28;20482;-62
2022/10/07 14:24:29;;;;;;;7.70;5.80;;;22.20;99.90;;;;;;4978868;28;21015;-62
2022/10/07 14:26:56;;;;;;;8.00;7.30;;;22.20;99.90;;;;;;4979381;28;20446;-65
2022/10/07 14:29:37;;;;;;;10.47;7.40;;;22.10;99.90;;;;;;4978234;28;20938;-63
2022/10/07 14:35:22;;;;;;;8.00;7.30;;;21.80;99.90;;;;;;4974688;28;20442;-62
2022/10/07 14:37:49;;;;;;;8.40;7.40;;;21.60;99.90;;;;;;4974611;28;20903;-62
2022/10/07 14:40:19;;;;;;;8.50;7.43;;;21.50;99.90;;;;;;4974353;28;20938;-62
2022/10/07 14:42:46;;;;;;;7.93;7.17;;;21.30;99.90;;;;;;4974599;28;20466;-62
2022/10/07 14:45:16;;;;;;;9.10;7.20;;;21.30;99.90;;;;;;4975529;28;20462;-62
2022/10/07 14:47:44;;;;;;;7.23;6.60;;;21.20;99.90;;;;;;4975407;28;20864;-62
2022/10/07 14:50:12;;;;;;;7.67;7.07;;;21.10;99.90;;;;;;4974836;28;20969;-62
2022/10/07 14:52:44;;;;;;;9.20;7.07;;;21.10;99.90;;;;;;4975503;28;20562;-62
2022/10/07 14:55:18;;;;;;;7.90;7.10;;;21.10;99.90;;;;;;4974914;28;20439;-63
2022/10/07 14:57:47;;;;;;;7.00;6.40;;;21.00;99.90;;;;;;4975676;28;20443;-62
2022/10/07 15:00:17;;;;;;;7.23;6.53;;;21.10;99.90;;;;;;4974642;28;20458;-62
2022/10/07 15:02:43;;;;;;;7.70;7.10;;;21.00;99.90;;;;;;4975117;28;20446;-62
2022/10/07 15:05:12;;;;;;;7.97;7.30;;;21.00;99.90;;;;;;4976649;28;20518;-63
2022/10/07 15:07:41;;;;;;;8.03;7.33;;;21.00;99.90;;;;;;4978130;28;20454;-62
2022/10/07 15:10:13;;;;;;;11.90;8.80;;;21.00;99.90;;;;;;4978176;28;20968;-62
2022/10/07 15:12:40;;;;;;;6.97;6.40;;;21.00;99.90;;;;;;4978171;28;20482;-62
2022/10/07 15:15:07;;;;;;;8.60;7.87;;;21.00;99.90;;;;;;4978727;28;20517;-62
2022/10/07 15:17:34;;;;;;;7.00;6.23;;;21.10;99.90;;;;;;4977985;28;20454;-62
2022/10/07 15:20:01;;;;;;;8.43;7.30;;;21.10;99.90;;;;;;4978034;28;20529;-63
2022/10/07 15:22:29;;;;;;;12.63;7.20;;;21.10;99.90;;;;;;4978251;28;20478;-62
2022/10/07 15:24:57;;;;;;;7.10;6.40;;;21.10;99.90;;;;;;4977496;28;20950;-62
2022/10/07 15:27:24;;;;;;;7.63;6.80;;;21.00;99.90;;;;;;4978381;28;20446;-62
2022/10/07 15:29:53;;;;;;;7.33;6.30;;;20.90;99.90;;;;;;4977849;28;20505;-61
2022/10/07 15:32:20;;;;;;;8.13;7.23;;;20.80;99.90;;;;;;4978351;28;20474;-64
2022/10/07 15:34:48;;;;;;;10.27;7.67;;;20.60;99.90;;;;;;4978212;28;20466;-62
2022/10/07 15:37:15;;;;;;;9.93;7.83;;;20.40;99.90;;;;;;4977653;28;20482;-63
2022/10/07 15:39:42;;;;;;;9.00;8.20;;;20.30;99.90;;;;;;4977614;28;20461;-63
2022/10/07 15:42:11;;;;;;;8.50;7.70;;;20.20;99.90;;;;;;4977576;28;20479;-62
2022/10/07 15:44:41;;;;;;;14.20;8.17;;;20.10;99.90;;;;;;4977548;28;20545;-62
2022/10/07 15:47:08;;;;;;;9.37;8.40;;;19.90;99.90;;;;;;4977934;28;20790;-63
2022/10/07 15:49:35;;;;;;;8.57;7.97;;;19.80;99.90;;;;;;4977716;28;20461;-61
2022/10/07 15:52:03;;;;;;;7.70;7.00;;;19.80;99.90;;;;;;4977981;28;20553;-62
2022/10/07 15:54:30;;;;;;;11.30;8.13;;;19.60;99.90;;;;;;4977157;28;20525;-62
2022/10/07 15:56:57;;;;;;;9.50;8.67;;;19.50;99.90;;;;;;4977028;28;20850;-63
2022/10/07 15:59:26;;;;;;;9.73;8.93;;;19.50;99.90;;;;;;4977322;28;20477;-63
2022/10/07 16:01:52;;;;;;;20.83;9.27;;;19.40;99.90;;;;;;4976838;28;20490;-62
2022/10/07 16:04:20;;;;;;;9.10;8.23;;;19.40;99.90;;;;;;4977308;28;20821;-63
2022/10/07 16:06:50;;;;;;;9.10;8.47;;;19.30;99.90;;;;;;4977233;28;20883;-62
2022/10/07 16:09:17;;;;;;;10.00;8.47;;;19.30;99.90;;;;;;4977101;28;20513;-63
2022/10/07 16:11:44;;;;;;;8.77;8.00;;;19.30;99.90;;;;;;4977710;28;20494;-62
2022/10/07 16:14:11;;;;;;;12.10;8.30;;;19.20;99.90;;;;;;4977500;28;20459;-63
2022/10/07 16:16:40;;;;;;;10.27;9.20;;;19.20;99.90;;;;;;4976757;28;20474;-62
2022/10/07 16:19:07;;;;;;;8.87;7.83;;;19.10;99.90;;;;;;4977053;28;20537;-62
2022/10/07 16:21:36;;;;;;;8.57;7.83;;;19.10;99.90;;;;;;4976549;28;20478;-62
2022/10/07 16:24:05;;;;;;;8.53;7.67;;;19.10;99.90;;;;;;4976930;28;20482;-61
2022/10/07 16:26:34;;;;;;;10.27;8.10;;;19.00;99.90;;;;;;4976821;28;20457;-63
2022/10/07 16:31:48;;;;;;;8.63;7.93;;;19.00;99.90;;;;;;4977087;28;20477;-63
2022/10/07 16:34:17;;;;;;;8.83;7.93;;;19.00;99.90;;;;;;4977057;28;20529;-63
2022/10/07 16:36:46;;;;;;;7.93;7.33;;;19.00;99.90;;;;;;4977664;28;20514;-63
2022/10/07 16:39:14;;;;;;;8.70;7.67;;;18.80;99.90;;;;;;4976786;28;20871;-63
2022/10/07 16:41:41;;;;;;;9.27;8.37;;;18.90;99.90;;;;;;4976747;28;20475;-64
2022/10/07 16:44:08;;;;;;;9.37;8.57;;;18.90;99.90;;;;;;4976593;28;20542;-63
2022/10/07 16:46:35;;;;;;;9.47;8.57;;;18.90;99.90;;;;;;4976563;28;20455;-64
2022/10/07 16:49:04;;;;;;;8.87;7.67;;;18.90;99.90;;;;;;4976393;28;20454;-63
2022/10/07 16:51:34;;;;;;;10.47;8.70;;;18.80;99.90;;;;;;4976539;28;20474;-63
2022/10/07 16:54:02;;;;;;;9.70;8.90;;;18.80;99.90;;;;;;4976533;28;20459;-64
2022/10/07 16:56:30;;;;;;;10.30;9.30;;;18.80;99.90;;;;;;4976252;28;20482;-64
2022/10/07 16:58:58;;;;;;;9.70;8.80;;;18.80;99.90;;;;;;4976344;28;20458;-65
2022/10/07 17:01:26;;;;;;;8.20;7.50;;;18.70;99.90;;;;;;4975846;28;20537;-65
2022/10/07 17:03:54;;;;;;;8.83;8.20;;;18.70;99.90;;;;;;4976267;28;20486;-65
2022/10/07 17:06:23;;;;;;;9.23;8.53;;;18.60;99.90;;;;;;4976405;28;20451;-64
2022/10/07 17:08:49;;;;;;;9.67;8.70;;;18.60;99.90;;;;;;4976312;28;20455;-64
2022/10/07 17:11:28;;;;;;;9.30;8.50;;;18.60;99.90;;;;;;4976057;28;20849;-64
2022/10/07 17:13:55;;;;;;;9.33;8.50;;;18.60;99.90;;;;;;4976510;28;20439;-63
2022/10/07 17:16:23;;;;;;;9.67;8.77;;;18.50;99.90;;;;;;4976126;28;20482;-64
2022/10/07 17:18:49;;;;;;;9.77;8.90;;;18.50;99.90;;;;;;4975991;28;20455;-64
2022/10/07 17:21:17;;;;;;;10.67;8.80;;;18.40;99.90;;;;;;4976064;28;20868;-64